Nearby METAR Reports

 

EDNY - Friedrichshafen, Germany
Distance from station: ONO 32km
aktuell: 26.05.2019 06:20
Mist, geschlossene Wolkendecke
Mist, geschlossene Wolkendecke
 Wind von varies
Wind: varies 4 km/h
Temperatur: 11°C
Taupunkt: 11°C
Luftfeuchte: 100%
Luftdruck: 1018 hPa
Zusammenfassung: Mist
Clouds: geschlossene Wolkendecke
Visibility: 4 km
Cloud details: stark bewölkt 122 m
geschlossene Wolkendecke 183 m
2019/05/26 04:20 EDNY 260420Z VRB02KT 3600 BR BKN004 OVC006 11/11 Q1018
LSZR - Rheineck/Altenrh, Switzerland
Distance from station: OSO 37km
aktuell: 26.05.2019 06:50
stark bewölkt
stark bewölkt
 Wind von WNW
Wind: WNW 6 km/h
Temperatur: 12°C
Taupunkt: 12°C
Luftfeuchte: 100%
Luftdruck: 1017 hPa
Clouds: stark bewölkt
Visibility: 6 km
Cloud details: stark bewölkt 122 m
stark bewölkt 640 m
2019/05/26 04:50 LSZR 260450Z AUTO 29003KT 6000 BKN004 BKN021 12/12 Q1017
LSMD - Dubendorf, Switzerland
Distance from station: SW 40km
aktuell: 26.05.2019 06:20
Mist, stark bewölkt
Mist, stark bewölkt
 Wind von calm
Wind: Windstill
Temperatur: 12°C
Taupunkt: 12°C
Luftfeuchte: 100%
Luftdruck: 1018 hPa
Zusammenfassung: Mist
Clouds: stark bewölkt
Visibility: 2 km
Cloud details: stark bewölkt 61 m
2019/05/26 04:20 LSMD 260420Z AUTO 00000KT 2200NDV BR BKN002 12/12 Q1018 RMK
 
LSZH - Zurich-Kloten (a, Switzerland
Distance from station: WSW 44km
aktuell: 26.05.2019 06:50
Patches of fog, teilweise bewölkt
Patches of fog, teilweise bewölkt
 Wind von varies
Wind: varies 4 km/h
Temperatur: 11°C
Taupunkt: 11°C
Luftfeuchte: 100%
Luftdruck: 1018 hPa
Zusammenfassung: Patches of Fog
Clouds: teilweise bewölkt
Visibility: 4 km
Cloud details: Few Clouds 30 m
teilweise bewölkt 1829 m
2019/05/26 04:50 LSZH 260450Z VRB02KT 3500 0300N R14/P2000N R16/P2000N R28/P2000N R34/P2000N BCFG FEW001 SCT060 11/11 Q1018 NOSIG
LOIH - Hohenems-Dornbir, Austria
Distance from station: OSO 51km
aktuell: 31.10.2016 17:00
NOT Current
geschlossene Wolkendecke
geschlossene Wolkendecke
 Wind von calm
Wind: Windstill
Temperatur: 10°C
Taupunkt: 9°C
Luftfeuchte: 94%
Luftdruck: 1026 hPa
Clouds: geschlossene Wolkendecke
Cloud details: geschlossene Wolkendecke 305 m
2016/10/31 16:00 LOIH 311600Z 00000KT 10KM OVC010ST 10/09 Q1026 RMK OVC
LSME - Emmen, Switzerland
Distance from station: SW 82km
aktuell: 26.05.2019 06:20
geschlossene Wolkendecke
geschlossene Wolkendecke
 Wind von calm
Wind: Windstill
Temperatur: 12°C
Taupunkt: 10°C
Luftfeuchte: 88%
Luftdruck: 1018 hPa
Clouds: geschlossene Wolkendecke
Visibility: 10 km
Cloud details: Few Clouds 1554 m
geschlossene Wolkendecke 2896 m
2019/05/26 04:20 LSME 260420Z AUTO 00000KT 9999NDV FEW051 OVC095 12/10 Q1018 RMK
 
LSZC - Buochs, Switzerland
Distance from station: SW 89km
aktuell: 26.05.2019 06:50
Drizzle, geschlossene Wolkendecke
Drizzle, geschlossene Wolkendecke
 Wind von varies
Wind: varies 2 km/h
Temperatur: 12°C
Taupunkt: 11°C
Luftfeuchte: 94%
Luftdruck: 1018 hPa
Zusammenfassung: Drizzle
Clouds: geschlossene Wolkendecke
Visibility: 10 km
Cloud details: geschlossene Wolkendecke 2438 m
2019/05/26 04:50 LSZC 260450Z AUTO VRB01KT 9999 DZ OVC080 12/11 Q1018
ETHL - Laupheim (ger-Ar, Germany
Distance from station: NO 92km
aktuell: 26.05.2019 06:20

 Wind von SW
Wind: SW 6 km/h
Temperatur: 8°C
Taupunkt: 7°C
Luftfeuchte: 93%
Luftdruck: 1017 hPa
Visibility: 0 km
2019/05/26 04:20 ETHL 260420Z AUTO 22003KT 0150 // ////// 08/07 Q1017 ///
EDJA - Memmingen Allgau, Germany
Distance from station: ONO 95km
aktuell: 26.05.2019 06:20
teilweise bewölkt
teilweise bewölkt
 Wind von S
Wind: S 6 km/h
Temperatur: 9°C
Taupunkt: 8°C
Luftfeuchte: 94%
Luftdruck: 1017 hPa
Clouds: teilweise bewölkt
Visibility: 6 km
2019/05/26 04:20 EDJA 260420Z 19003KT 6000 NSC 09/08 Q1017
 
LSMA - Alpnach, Switzerland
Distance from station: SW 95km
aktuell: 26.05.2019 06:20
geschlossene Wolkendecke
geschlossene Wolkendecke
 Wind von calm
Wind: Windstill
Temperatur: 11°C
Taupunkt: 11°C
Luftfeuchte: 100%
Luftdruck: 1018 hPa
Clouds: geschlossene Wolkendecke
Visibility: 10 km
Cloud details: Few Clouds 1372 m
teilweise bewölkt 1585 m
geschlossene Wolkendecke 2743 m
2019/05/26 04:20 LSMA 260420Z AUTO 00000KT 9999NDV FEW045 SCT052 OVC090 11/11 Q1018 RMK